Time;durP1;ratioP1;P1;durP2;ratioP2;P2;SDS_P1;SDS_P2;PMS_P1;PMS_P2;Temp;Humidity;BMP_temperature;BMP_pressure;BME280_temperature;BME280_humidity;BME280_pressure;Samples;Min_cycle;Max_cycle;Signal;HPM_P1;HPM_P2
2022/03/30 00:00:31;;;;;;;34.57;9.00;;;10.60;99.90;;;;;;5014833;28;20018;-77
2022/03/30 00:02:57;;;;;;;29.00;8.33;;;10.50;99.90;;;;;;5015020;28;20390;-77
2022/03/30 00:05:22;;;;;;;29.53;7.77;;;10.50;99.90;;;;;;4996401;28;20018;-77
2022/03/30 00:07:54;;;;;;;30.17;7.83;;;10.50;99.90;;;;;;5014395;28;20026;-76
2022/03/30 00:10:20;;;;;;;30.43;8.77;;;10.50;99.90;;;;;;5013996;28;20026;-77
2022/03/30 00:12:47;;;;;;;26.63;9.33;;;10.40;99.90;;;;;;5014161;28;20026;-77
2022/03/30 00:15:13;;;;;;;22.47;7.73;;;10.40;99.90;;;;;;4996521;28;20031;-77
2022/03/30 00:17:39;;;;;;;30.57;8.93;;;10.40;99.90;;;;;;4996224;28;20387;-77
2022/03/30 00:20:05;;;;;;;23.93;7.60;;;10.40;99.90;;;;;;5013755;28;20017;-77
2022/03/30 00:22:31;;;;;;;30.63;8.67;;;10.30;99.90;;;;;;5013601;28;20057;-77
2022/03/30 00:24:56;;;;;;;37.57;9.10;;;10.30;99.90;;;;;;5013668;28;20053;-75
2022/03/30 00:27:22;;;;;;;29.53;8.37;;;10.30;99.90;;;;;;5013712;28;20383;-76
2022/03/30 00:29:48;;;;;;;30.50;9.03;;;10.30;99.90;;;;;;5013552;28;20030;-76
2022/03/30 00:32:14;;;;;;;33.47;8.93;;;10.30;99.90;;;;;;5013523;28;20065;-75
2022/03/30 00:34:39;;;;;;;26.43;8.40;;;10.30;99.90;;;;;;5013808;28;20030;-76
2022/03/30 00:37:08;;;;;;;29.17;8.53;;;10.30;99.90;;;;;;5013452;28;20037;-76
2022/03/30 00:39:34;;;;;;;32.60;9.00;;;10.30;99.90;;;;;;5013497;28;20374;-76
2022/03/30 00:42:00;;;;;;;33.13;8.17;;;10.30;99.90;;;;;;5012876;28;20467;-76
2022/03/30 00:44:26;;;;;;;28.30;8.70;;;10.30;99.90;;;;;;5013413;28;20383;-75
2022/03/30 00:46:52;;;;;;;32.70;8.50;;;10.30;99.90;;;;;;4995780;28;20026;-75
2022/03/30 00:49:18;;;;;;;26.07;8.43;;;10.30;99.90;;;;;;5013377;28;20036;-76
2022/03/30 00:51:44;;;;;;;33.07;8.80;;;10.30;99.90;;;;;;5013602;28;20036;-75
2022/03/30 00:54:10;;;;;;;33.33;8.80;;;10.30;99.90;;;;;;5013257;28;20381;-76
2022/03/30 00:56:39;;;;;;;26.73;7.87;;;10.30;99.90;;;;;;4995759;28;20057;-76
2022/03/30 00:59:05;;;;;;;33.40;8.50;;;10.30;99.90;;;;;;5013155;28;20037;-76
2022/03/30 01:01:33;;;;;;;36.33;9.93;;;10.30;99.90;;;;;;5013474;28;20084;-76
2022/03/30 01:04:01;;;;;;;34.53;8.87;;;10.20;99.90;;;;;;4977318;28;1041007;-76
2022/03/30 01:06:26;;;;;;;27.43;8.57;;;10.20;99.90;;;;;;5013901;28;20034;-76
2022/03/30 01:08:52;;;;;;;34.97;8.93;;;10.10;99.90;;;;;;4996226;28;20030;-76
2022/03/30 01:11:18;;;;;;;26.30;7.43;;;10.10;99.90;;;;;;5014083;28;20026;-76
2022/03/30 01:13:44;;;;;;;30.40;8.43;;;10.10;99.90;;;;;;5013755;28;20357;-76
2022/03/30 01:16:09;;;;;;;29.87;7.73;;;10.10;99.90;;;;;;5013900;28;20080;-76
2022/03/30 01:18:39;;;;;;;33.23;7.97;;;10.10;99.90;;;;;;5013773;28;20022;-76
2022/03/30 01:21:05;;;;;;;34.13;7.60;;;10.10;99.90;;;;;;5013864;28;20344;-76
2022/03/30 01:23:31;;;;;;;30.83;8.33;;;10.40;99.90;;;;;;4996058;28;20032;-76
2022/03/30 01:25:56;;;;;;;24.37;8.37;;;10.30;99.90;;;;;;4996045;28;20120;-77
2022/03/30 01:28:27;;;;;;;37.03;9.63;;;10.40;99.90;;;;;;4995968;28;20176;-76
2022/03/30 01:33:38;;;;;;;32.53;8.30;;;10.20;99.90;;;;;;5013887;28;20033;-76
2022/03/30 01:36:04;;;;;;;30.27;8.17;;;10.20;99.90;;;;;;4995762;28;20030;-76
2022/03/30 01:38:29;;;;;;;32.33;8.60;;;10.10;99.90;;;;;;5013562;28;20029;-76
2022/03/30 01:40:55;;;;;;;24.80;8.13;;;10.00;99.90;;;;;;5013692;28;20028;-76
2022/03/30 01:43:21;;;;;;;34.83;8.27;;;10.00;99.90;;;;;;5013698;28;20018;-76
2022/03/30 01:45:47;;;;;;;34.83;8.27;;;10.00;99.90;;;;;;4995792;28;20033;-76
2022/03/30 01:48:12;;;;;;;35.40;8.03;;;10.00;99.90;;;;;;5013489;28;20478;-76
2022/03/30 01:50:38;;;;;;;31.90;9.10;;;10.00;99.90;;;;;;5013607;28;20382;-76
2022/03/30 01:53:03;;;;;;;35.20;8.07;;;10.00;99.90;;;;;;4995759;28;20208;-77
2022/03/30 01:55:29;;;;;;;31.17;8.27;;;10.10;99.90;;;;;;5017449;28;20030;-76
2022/03/30 01:57:55;;;;;;;34.20;8.47;;;10.10;99.90;;;;;;5017556;28;20431;-76
2022/03/30 02:00:21;;;;;;;37.10;8.13;;;10.10;99.90;;;;;;5017288;28;20100;-76
2022/03/30 02:02:47;;;;;;;36.83;7.70;;;10.10;99.90;;;;;;5017415;28;20109;-76
2022/03/30 02:05:13;;;;;;;32.27;8.30;;;10.10;99.90;;;;;;5016872;28;20538;-76
2022/03/30 02:07:39;;;;;;;26.27;8.10;;;10.10;99.90;;;;;;5017138;28;20104;-77
2022/03/30 02:10:07;;;;;;;36.77;9.33;;;10.20;99.90;;;;;;5017282;28;20030;-76
2022/03/30 02:12:34;;;;;;;30.13;8.00;;;10.20;99.90;;;;;;5017607;28;20451;-77
2022/03/30 02:15:00;;;;;;;37.43;7.90;;;10.20;99.90;;;;;;5016916;28;20109;-77
2022/03/30 02:17:29;;;;;;;31.83;8.67;;;10.30;99.90;;;;;;5017038;28;20113;-76
2022/03/30 02:19:55;;;;;;;27.33;7.80;;;10.30;99.90;;;;;;4999116;28;20032;-77
2022/03/30 02:22:22;;;;;;;32.87;8.10;;;10.40;99.90;;;;;;5016774;28;20022;-77
2022/03/30 02:24:48;;;;;;;38.47;7.90;;;10.40;99.90;;;;;;5017001;28;20124;-77
2022/03/30 02:27:15;;;;;;;28.60;7.27;;;10.40;99.90;;;;;;5016713;28;20037;-77
2022/03/30 02:29:40;;;;;;;32.10;8.00;;;10.50;99.90;;;;;;5016646;28;20107;-77
2022/03/30 02:32:06;;;;;;;39.10;8.50;;;10.50;99.90;;;;;;5016626;28;20026;-77
2022/03/30 02:34:32;;;;;;;28.47;7.50;;;10.50;99.90;;;;;;5016566;28;20076;-77
2022/03/30 02:36:58;;;;;;;38.80;9.77;;;10.50;99.90;;;;;;4998892;28;20080;-77
2022/03/30 02:39:23;;;;;;;33.60;8.23;;;10.60;99.90;;;;;;5016710;28;20022;-77
2022/03/30 02:41:49;;;;;;;30.13;7.77;;;10.60;99.90;;;;;;5016697;28;20030;-76
2022/03/30 02:44:14;;;;;;;37.80;7.70;;;10.60;99.90;;;;;;4998758;28;20055;-76
2022/03/30 02:46:40;;;;;;;37.73;9.23;;;10.60;99.90;;;;;;4998749;28;20022;-77
2022/03/30 02:49:06;;;;;;;34.43;8.43;;;10.60;99.90;;;;;;4998674;28;20121;-77
2022/03/30 02:51:31;;;;;;;35.27;8.90;;;10.60;99.90;;;;;;5016343;28;20030;-77
2022/03/30 02:53:57;;;;;;;32.90;8.80;;;10.60;99.90;;;;;;4998639;28;20022;-77
2022/03/30 02:56:22;;;;;;;26.73;7.30;;;10.60;99.90;;;;;;5016367;28;20033;-77
2022/03/30 02:58:48;;;;;;;37.23;9.17;;;10.70;99.90;;;;;;4998498;28;20022;-77
2022/03/30 03:01:14;;;;;;;41.60;7.93;;;10.70;99.90;;;;;;5016151;28;20040;-77
2022/03/30 03:03:40;;;;;;;40.93;9.60;;;10.70;99.90;;;;;;5015955;28;20054;-77
2022/03/30 03:06:06;;;;;;;40.40;9.13;;;10.70;99.90;;;;;;4998032;28;20037;-77
2022/03/30 03:08:32;;;;;;;38.33;9.57;;;10.70;99.90;;;;;;5016020;28;20406;-77
2022/03/30 03:10:57;;;;;;;35.77;8.37;;;10.70;99.90;;;;;;5015993;28;20370;-77
2022/03/30 03:13:25;;;;;;;37.83;8.57;;;10.70;99.90;;;;;;5015905;28;20030;-77
2022/03/30 03:15:50;;;;;;;39.13;7.90;;;10.70;99.90;;;;;;5015874;28;20018;-77
2022/03/30 03:18:16;;;;;;;37.90;9.43;;;10.70;99.90;;;;;;5015967;28;20037;-77
2022/03/30 03:20:43;;;;;;;34.90;8.40;;;10.80;99.90;;;;;;5015799;28;20421;-77
2022/03/30 03:23:10;;;;;;;44.53;9.17;;;10.80;99.90;;;;;;5015974;28;20446;-77
2022/03/30 03:25:37;;;;;;;41.10;8.83;;;10.80;99.90;;;;;;4997930;28;20026;-77
2022/03/30 03:28:04;;;;;;;38.17;8.57;;;10.70;99.90;;;;;;5015925;28;20022;-77
2022/03/30 03:30:30;;;;;;;50.03;9.90;;;10.70;99.90;;;;;;5015644;28;20024;-77
2022/03/30 03:32:56;;;;;;;39.57;8.23;;;10.70;99.90;;;;;;5016152;28;20014;-77
2022/03/30 03:35:22;;;;;;;44.13;8.90;;;10.70;99.90;;;;;;5015815;28;20022;-77
2022/03/30 03:37:48;;;;;;;41.27;7.93;;;10.70;99.90;;;;;;5015375;28;20049;-77
2022/03/30 03:40:13;;;;;;;39.80;9.60;;;10.70;99.90;;;;;;5015367;28;20080;-77
2022/03/30 03:42:40;;;;;;;49.10;9.27;;;10.80;99.90;;;;;;5015360;28;20021;-77
2022/03/30 03:45:06;;;;;;;43.90;9.90;;;10.70;99.90;;;;;;5015318;28;20018;-77
2022/03/30 03:47:32;;;;;;;42.37;8.83;;;10.80;99.90;;;;;;4998131;28;20549;-77
2022/03/30 03:49:58;;;;;;;32.47;8.83;;;10.70;99.90;;;;;;5015495;28;20034;-77
2022/03/30 03:52:24;;;;;;;36.43;7.30;;;10.70;99.90;;;;;;5015065;28;20052;-77
2022/03/30 03:54:49;;;;;;;37.43;8.20;;;10.70;99.90;;;;;;4997530;28;20061;-77
2022/03/30 03:57:15;;;;;;;34.40;8.83;;;10.70;99.90;;;;;;4997431;28;20034;-77
2022/03/30 03:59:40;;;;;;;37.17;7.97;;;10.70;99.90;;;;;;5015507;28;20022;-77
2022/03/30 04:02:07;;;;;;;51.23;10.77;;;10.60;99.90;;;;;;4997436;28;20022;-77
2022/03/30 04:04:33;;;;;;;37.80;8.87;;;10.60;99.90;;;;;;5014727;28;20034;-77
2022/03/30 04:06:59;;;;;;;39.60;9.07;;;10.60;99.90;;;;;;5015015;28;20099;-77
2022/03/30 04:09:24;;;;;;;33.37;8.80;;;10.60;99.90;;;;;;4997087;28;20089;-77
2022/03/30 04:11:52;;;;;;;44.27;9.10;;;10.50;99.90;;;;;;5014705;28;20387;-76
2022/03/30 04:14:19;;;;;;;41.53;8.37;;;10.50;99.90;;;;;;5014661;28;20329;-77
2022/03/30 04:16:46;;;;;;;43.63;8.70;;;10.50;99.90;;;;;;5014090;28;20467;-77
2022/03/30 04:19:12;;;;;;;37.17;9.10;;;10.50;99.90;;;;;;5014701;28;20033;-75
2022/03/30 04:21:37;;;;;;;43.90;9.27;;;10.50;99.90;;;;;;5014668;28;20026;-75
2022/03/30 04:24:03;;;;;;;34.67;8.40;;;10.40;99.90;;;;;;4997321;28;20029;-74
2022/03/30 04:26:29;;;;;;;41.40;9.73;;;10.40;99.90;;;;;;5014584;28;20022;-74
2022/03/30 04:28:54;;;;;;;37.30;9.17;;;10.30;99.90;;;;;;5014395;28;20033;-75
2022/03/30 04:31:20;;;;;;;45.30;10.03;;;10.30;99.90;;;;;;5014535;28;20418;-75
2022/03/30 04:33:46;;;;;;;41.40;7.83;;;10.30;99.90;;;;;;5014937;28;20475;-75
2022/03/30 04:36:11;;;;;;;32.23;7.80;;;10.20;99.90;;;;;;4996632;28;20036;-75
2022/03/30 04:38:38;;;;;;;38.57;9.43;;;10.30;99.90;;;;;;5014632;28;20030;-75
2022/03/30 04:41:03;;;;;;;41.10;9.00;;;10.30;99.90;;;;;;5014864;28;20486;-75
2022/03/30 04:43:29;;;;;;;43.33;8.73;;;10.20;99.90;;;;;;5014507;28;20045;-75
2022/03/30 04:45:55;;;;;;;38.30;8.73;;;10.20;99.90;;;;;;5014146;28;20045;-75
2022/03/30 04:48:22;;;;;;;37.80;7.57;;;10.20;99.90;;;;;;5014364;28;20029;-76
2022/03/30 04:50:48;;;;;;;49.00;8.83;;;10.10;99.90;;;;;;5014024;28;20026;-76
2022/03/30 04:53:14;;;;;;;47.40;9.23;;;10.10;99.90;;;;;;5014001;28;20030;-76
2022/03/30 04:55:40;;;;;;;33.07;8.13;;;10.10;99.90;;;;;;4996476;28;20071;-76
2022/03/30 04:58:05;;;;;;;39.33;8.47;;;10.10;99.90;;;;;;5013997;28;20042;-76
2022/03/30 05:00:32;;;;;;;37.90;8.60;;;10.10;99.90;;;;;;5013960;28;20053;-76
2022/03/30 05:02:58;;;;;;;45.60;8.27;;;10.10;99.90;;;;;;4996002;28;20117;-76
2022/03/30 05:05:23;;;;;;;37.80;8.43;;;10.00;99.90;;;;;;5013838;28;20101;-78
2022/03/30 05:07:49;;;;;;;46.03;9.70;;;10.00;99.90;;;;;;4996395;28;20108;-77
2022/03/30 05:10:15;;;;;;;43.57;9.07;;;10.00;99.90;;;;;;5013855;28;20080;-75
2022/03/30 05:12:41;;;;;;;40.33;10.23;;;10.00;99.90;;;;;;5013978;28;20029;-75
2022/03/30 05:15:09;;;;;;;37.10;8.80;;;9.90;99.90;;;;;;4996016;28;20025;-76
2022/03/30 05:17:36;;;;;;;47.80;9.70;;;9.90;99.90;;;;;;5013729;28;20029;-76
2022/03/30 05:20:02;;;;;;;35.50;8.33;;;9.90;99.90;;;;;;4996695;28;20116;-77
2022/03/30 05:22:28;;;;;;;37.07;9.50;;;9.90;99.90;;;;;;5013651;28;20457;-77
2022/03/30 05:24:54;;;;;;;36.03;9.27;;;9.90;99.90;;;;;;5013520;28;20022;-77
2022/03/30 05:27:19;;;;;;;41.20;9.43;;;9.90;99.90;;;;;;5013436;28;20040;-77
2022/03/30 05:29:45;;;;;;;39.90;8.97;;;9.90;99.90;;;;;;5013547;28;20080;-77
2022/03/30 05:32:11;;;;;;;50.47;9.47;;;9.90;99.90;;;;;;5018111;23;20457;-76
2022/03/30 05:34:37;;;;;;;41.93;9.43;;;9.90;99.90;;;;;;5015927;28;20060;-77
2022/03/30 05:37:03;;;;;;;36.07;8.93;;;9.90;99.90;;;;;;5011463;28;20034;-77
2022/03/30 05:39:30;;;;;;;44.03;9.63;;;9.90;99.90;;;;;;5011038;28;20030;-77
2022/03/30 05:41:55;;;;;;;38.03;9.17;;;9.90;99.90;;;;;;5011035;28;20045;-76
2022/03/30 05:44:21;;;;;;;40.40;10.37;;;9.90;99.90;;;;;;5012145;28;20022;-76
2022/03/30 05:46:47;;;;;;;42.20;9.67;;;9.90;99.90;;;;;;5013495;28;20022;-76
2022/03/30 05:49:13;;;;;;;39.53;10.33;;;9.90;99.90;;;;;;5013732;28;20021;-76
2022/03/30 05:51:38;;;;;;;37.87;9.37;;;10.00;99.90;;;;;;5013557;28;20029;-75
2022/03/30 05:54:04;;;;;;;28.20;8.80;;;9.90;99.90;;;;;;5010223;28;20038;-80
2022/03/30 05:59:15;;;;;;;40.43;9.67;;;10.00;99.90;;;;;;4996526;28;20816;-81
2022/03/30 06:01:41;;;;;;;33.53;9.37;;;10.10;99.90;;;;;;5007547;28;20470;-82
2022/03/30 06:04:06;;;;;;;30.73;9.10;;;10.10;99.90;;;;;;5007555;28;20068;-81
2022/03/30 06:06:33;;;;;;;25.83;8.53;;;10.20;99.90;;;;;;5007508;28;20678;-81
2022/03/30 06:08:59;;;;;;;41.77;8.93;;;10.20;99.90;;;;;;5007828;28;20466;-81
2022/03/30 06:11:25;;;;;;;42.60;9.50;;;10.20;99.90;;;;;;5006900;28;20026;-81
2022/03/30 06:13:50;;;;;;;41.20;9.77;;;10.30;99.90;;;;;;5007432;28;20045;-81
2022/03/30 06:16:16;;;;;;;40.07;8.57;;;10.30;99.90;;;;;;5007372;28;20041;-81
2022/03/30 06:18:43;;;;;;;43.10;10.10;;;10.40;99.90;;;;;;5007879;28;20030;-78
2022/03/30 06:21:09;;;;;;;38.30;9.60;;;10.50;99.90;;;;;;5020084;28;20545;-78
2022/03/30 06:23:35;;;;;;;33.20;9.17;;;10.50;99.90;;;;;;5026033;28;20021;-78
2022/03/30 06:26:02;;;;;;;44.90;9.77;;;10.60;99.90;;;;;;5030001;28;20030;-77
2022/03/30 06:28:29;;;;;;;40.53;9.07;;;10.60;99.90;;;;;;5013285;28;20351;-78
2022/03/30 06:30:55;;;;;;;33.43;8.53;;;10.70;99.90;;;;;;5013273;28;20046;-78
2022/03/30 06:33:21;;;;;;;36.70;8.93;;;10.70;99.90;;;;;;5013383;28;20034;-78
2022/03/30 06:35:46;;;;;;;35.77;9.60;;;10.80;99.90;;;;;;5013098;28;20467;-78
2022/03/30 06:38:12;;;;;;;32.87;9.97;;;10.90;99.90;;;;;;5012985;28;20024;-76
2022/03/30 06:40:38;;;;;;;40.43;9.93;;;11.00;99.90;;;;;;5035594;28;20105;-76
2022/03/30 06:43:04;;;;;;;42.55;9.63;;;11.00;99.90;;;;;;5036565;28;20116;-76
2022/03/30 06:45:30;;;;;;;34.53;9.87;;;11.10;99.90;;;;;;5036835;28;20096;-77
2022/03/30 06:47:56;;;;;;;40.17;9.70;;;11.20;99.90;;;;;;5036531;28;20063;-77
2022/03/30 06:50:21;;;;;;;41.97;8.55;;;11.40;99.90;;;;;;5035192;28;20484;-77
2022/03/30 06:52:47;;;;;;;48.25;8.50;;;11.50;99.90;;;;;;5034988;28;20112;-76
2022/03/30 06:55:14;;;;;;;39.72;8.05;;;11.50;99.90;;;;;;5034980;28;20025;-77
2022/03/30 06:57:41;;;;;;;40.13;9.20;;;11.50;99.90;;;;;;5015683;28;20446;-79
2022/03/30 07:00:07;;;;;;;36.60;8.97;;;11.50;99.90;;;;;;5014972;28;20022;-69
2022/03/30 07:02:32;;;;;;;42.47;9.27;;;11.70;99.90;;;;;;5015543;28;20048;-77
2022/03/30 07:04:58;;;;;;;32.00;7.47;;;11.70;99.90;;;;;;5016033;28;20077;-77
2022/03/30 07:10:15;;;;;;;44.08;9.90;;;11.90;99.90;;;;;;5015863;28;20541;-77
2022/03/30 07:12:41;;;;;;;32.45;7.82;;;11.90;99.90;;;;;;5015420;28;20041;-77
2022/03/30 07:15:07;;;;;;;40.33;7.95;;;11.90;99.90;;;;;;5015520;28;20058;-76
2022/03/30 07:17:33;;;;;;;38.15;9.00;;;11.90;99.90;;;;;;5029828;28;20463;-76
2022/03/30 07:19:59;;;;;;;33.10;8.32;;;11.90;99.90;;;;;;5014215;28;20030;-76
2022/03/30 07:22:25;;;;;;;36.22;7.30;;;12.00;99.90;;;;;;5015334;28;20018;-76
2022/03/30 07:24:50;;;;;;;36.22;8.48;;;11.90;99.90;;;;;;5015386;28;20411;-76
2022/03/30 07:27:16;;;;;;;39.42;7.63;;;12.00;99.90;;;;;;5013607;28;20454;-76
2022/03/30 07:29:42;;;;;;;29.30;7.50;;;12.00;99.90;;;;;;5009081;28;20068;-76
2022/03/30 07:32:07;;;;;;;39.42;8.35;;;12.20;99.90;;;;;;5015165;28;20124;-76
2022/03/30 07:34:33;;;;;;;33.60;8.75;;;12.10;99.90;;;;;;5015007;28;20366;-77
2022/03/30 07:36:59;;;;;;;43.83;8.77;;;12.20;99.90;;;;;;5014866;28;20022;-77
2022/03/30 07:39:40;;;;;;;36.80;7.25;;;12.10;99.90;;;;;;5018026;28;20029;-77
2022/03/30 07:42:06;;;;;;;39.38;8.18;;;12.20;99.90;;;;;;5015785;28;20029;-75
2022/03/30 07:44:31;;;;;;;33.67;7.83;;;12.30;99.90;;;;;;5015288;28;20072;-75
2022/03/30 07:46:59;;;;;;;41.08;8.10;;;12.20;99.90;;;;;;5015332;28;20034;-75
2022/03/30 07:49:24;;;;;;;38.35;8.52;;;12.20;99.90;;;;;;5015275;28;20475;-75
2022/03/30 07:51:50;;;;;;;32.85;8.20;;;12.40;99.90;;;;;;5014123;28;20037;-76
2022/03/30 07:54:16;;;;;;;41.38;8.30;;;12.20;99.90;;;;;;5015173;28;20125;-75
2022/03/30 07:56:41;;;;;;;40.28;7.72;;;12.30;99.90;;;;;;5015223;28;20088;-75
2022/03/30 07:59:07;;;;;;;38.58;9.13;;;12.30;99.90;;;;;;5015018;28;20030;-76
2022/03/30 08:01:32;;;;;;;36.75;7.50;;;12.30;99.90;;;;;;5014999;28;20056;-75
2022/03/30 08:03:58;;;;;;;41.67;9.18;;;12.50;99.90;;;;;;5014903;28;20489;-75
2022/03/30 08:06:23;;;;;;;41.10;8.38;;;12.50;99.90;;;;;;5014965;28;20033;-75
2022/03/30 08:08:49;;;;;;;36.78;8.13;;;12.50;99.90;;;;;;5015228;28;20445;-75
2022/03/30 08:11:14;;;;;;;31.63;8.25;;;12.50;99.90;;;;;;5015193;28;20370;-75
2022/03/30 08:13:40;;;;;;;42.15;8.85;;;12.40;99.90;;;;;;5014341;28;20429;-75
2022/03/30 08:16:10;;;;;;;39.25;8.63;;;12.40;99.90;;;;;;5014494;28;20026;-76
2022/03/30 08:18:38;;;;;;;36.83;7.88;;;12.40;99.90;;;;;;5014487;28;20026;-75
2022/03/30 08:24:10;;;;;;;42.17;8.48;;;12.50;99.90;;;;;;5014515;28;20088;-75
2022/03/30 08:26:43;;;;;;;42.15;9.07;;;12.70;99.90;;;;;;5012819;28;20026;-74
2022/03/30 08:29:16;;;;;;;43.88;8.20;;;12.80;99.90;;;;;;5012910;28;20356;-75
2022/03/30 08:31:42;;;;;;;41.78;8.00;;;12.80;99.90;;;;;;5030211;28;20482;-75
2022/03/30 08:34:08;;;;;;;34.55;7.40;;;13.10;99.90;;;;;;5025453;28;20021;-75
2022/03/30 08:36:34;;;;;;;41.35;8.57;;;13.00;99.90;;;;;;5012317;28;20062;-75
2022/03/30 08:39:05;;;;;;;30.73;7.43;;;12.90;99.90;;;;;;5013668;28;20028;-75
2022/03/30 08:41:31;;;;;;;39.78;8.43;;;12.80;99.90;;;;;;5012485;28;20113;-75
2022/03/30 08:43:58;;;;;;;39.28;8.55;;;12.90;99.90;;;;;;5013418;28;20486;-75
2022/03/30 08:46:24;;;;;;;35.42;8.38;;;13.20;99.90;;;;;;5013425;28;20026;-76
2022/03/30 08:48:49;;;;;;;37.40;8.30;;;13.20;99.90;;;;;;5012647;28;20026;-75
2022/03/30 08:51:16;;;;;;;41.17;8.70;;;13.00;99.90;;;;;;5013226;28;20038;-75
2022/03/30 08:53:42;;;;;;;36.45;8.77;;;13.00;99.90;;;;;;5012957;28;20084;-75
2022/03/30 08:56:07;;;;;;;33.17;8.65;;;12.90;99.90;;;;;;5013020;28;20034;-75
2022/03/30 08:58:33;;;;;;;28.88;7.90;;;12.80;99.90;;;;;;5032834;28;20029;-77
2022/03/30 09:01:09;;;;;;;31.20;8.68;;;12.70;99.90;;;;;;5011158;28;20021;-81
2022/03/30 09:03:35;;;;;;;30.65;7.72;;;12.50;99.90;;;;;;5004704;28;20088;-83
2022/03/30 09:06:01;;;;;;;38.83;9.60;;;12.40;99.90;;;;;;5005982;28;20064;-82
2022/03/30 09:08:27;;;;;;;42.25;8.05;;;12.30;99.90;;;;;;5007172;28;20026;-82
2022/03/30 09:10:55;;;;;;;30.65;7.88;;;12.10;99.90;;;;;;5010034;28;20048;-77
2022/03/30 09:13:21;;;;;;;36.13;8.45;;;12.10;99.90;;;;;;5010403;28;20030;-78
2022/03/30 09:15:50;;;;;;;33.20;9.10;;;12.00;99.90;;;;;;5011783;28;20803;-78
2022/03/30 09:18:17;;;;;;;36.58;9.68;;;12.00;99.90;;;;;;5012270;28;20366;-78
2022/03/30 09:20:46;;;;;;;34.80;8.18;;;12.00;99.90;;;;;;5001364;28;20129;-78
2022/03/30 09:23:13;;;;;;;33.33;7.07;;;12.00;99.90;;;;;;5012261;28;20394;-78
2022/03/30 09:25:42;;;;;;;29.95;8.20;;;12.00;99.90;;;;;;5012119;28;20026;-78
2022/03/30 09:28:09;;;;;;;35.78;7.85;;;12.00;99.90;;;;;;5012450;28;20022;-78
2022/03/30 09:30:35;;;;;;;31.95;7.60;;;12.00;99.90;;;;;;5011103;28;20033;-77
2022/03/30 09:33:01;;;;;;;32.50;8.00;;;12.10;99.90;;;;;;4995593;28;20054;-80
2022/03/30 09:35:33;;;;;;;47.05;8.73;;;12.10;99.90;;;;;;4991141;28;20037;-78
2022/03/30 09:38:15;;;;;;;41.38;8.18;;;12.20;99.90;;;;;;5008126;28;20026;-80
2022/03/30 09:40:47;;;;;;;27.85;7.63;;;12.20;99.90;;;;;;5003414;28;20030;-79
2022/03/30 09:43:16;;;;;;;36.22;7.97;;;12.30;99.90;;;;;;5006353;28;20441;-80
2022/03/30 09:45:42;;;;;;;31.95;8.05;;;12.30;99.90;;;;;;5007059;28;20037;-79
2022/03/30 09:48:18;;;;;;;32.20;9.10;;;12.40;99.90;;;;;;5007693;28;20029;-82
2022/03/30 09:50:50;;;;;;;33.65;7.63;;;12.50;99.90;;;;;;5015289;28;20034;-82
2022/03/30 09:53:26;;;;;;;33.33;7.70;;;12.60;99.90;;;;;;5022752;28;20378;-82
2022/03/30 09:55:52;;;;;;;33.33;8.57;;;12.50;99.90;;;;;;5006578;28;20026;-82
2022/03/30 09:58:20;;;;;;;33.28;8.25;;;12.50;99.90;;;;;;5001357;28;20033;-81
2022/03/30 10:01:05;;;;;;;32.60;7.90;;;12.40;99.90;;;;;;4991556;28;20809;-81
2022/03/30 10:03:44;;;;;;;35.88;8.27;;;12.40;99.90;;;;;;5002676;28;20026;-81
2022/03/30 10:06:12;;;;;;;30.45;8.60;;;12.30;99.90;;;;;;4999010;28;20147;-81
2022/03/30 10:08:43;;;;;;;32.83;7.93;;;12.20;99.90;;;;;;5007344;28;20033;-81
2022/03/30 10:11:10;;;;;;;33.63;7.97;;;12.30;99.90;;;;;;5007145;28;20026;-81
2022/03/30 10:13:39;;;;;;;34.50;8.20;;;12.30;99.90;;;;;;5005949;28;20128;-81
2022/03/30 10:16:08;;;;;;;29.52;6.95;;;12.40;99.90;;;;;;5008723;28;20108;-81
2022/03/30 10:18:35;;;;;;;41.42;9.02;;;12.50;99.90;;;;;;5011173;28;20025;-82
2022/03/30 10:21:19;;;;;;;32.80;7.57;;;12.40;99.90;;;;;;5021298;28;20138;-81
2022/03/30 10:24:11;;;;;;;38.38;8.50;;;12.40;99.90;;;;;;5022713;28;20026;-81
2022/03/30 10:27:03;;;;;;;32.28;6.93;;;12.60;99.90;;;;;;5010823;28;20120;-81
2022/03/30 10:29:31;;;;;;;33.25;8.27;;;12.60;99.90;;;;;;5009733;28;20418;-81
2022/03/30 10:32:31;;;;;;;29.48;6.78;;;12.50;99.90;;;;;;5010475;28;20088;-81
2022/03/30 10:35:15;;;;;;;39.80;9.23;;;12.40;99.90;;;;;;5010446;28;20026;-81
2022/03/30 10:37:43;;;;;;;35.47;8.05;;;12.40;99.90;;;;;;5010698;28;20498;-81
2022/03/30 10:40:15;;;;;;;35.97;9.10;;;12.30;99.90;;;;;;5010514;28;20109;-81
2022/03/30 10:42:47;;;;;;;36.40;7.40;;;12.30;99.90;;;;;;5009964;28;20048;-81
2022/03/30 10:45:39;;;;;;;37.58;7.60;;;12.40;99.90;;;;;;5008844;28;20144;-81
2022/03/30 10:48:30;;;;;;;29.70;7.20;;;12.40;99.90;;;;;;5009540;28;20067;-81
2022/03/30 10:50:57;;;;;;;34.83;8.13;;;12.20;99.90;;;;;;5008360;28;20073;-81
2022/03/30 10:53:35;;;;;;;28.73;7.22;;;12.30;99.90;;;;;;5012027;28;20034;-79
2022/03/30 10:56:15;;;;;;;32.90;8.15;;;12.30;99.90;;;;;;4990683;28;20535;-81
2022/03/30 10:58:52;;;;;;;34.38;7.63;;;12.30;99.90;;;;;;5002799;28;20034;-81
2022/03/30 11:01:25;;;;;;;34.25;8.18;;;12.30;99.90;;;;;;5019052;28;20075;-79
2022/03/30 11:04:10;;;;;;;33.72;7.50;;;12.30;99.90;;;;;;5008023;28;20033;-80
2022/03/30 11:06:38;;;;;;;31.98;8.20;;;12.30;99.90;;;;;;5014572;28;20076;-80
2022/03/30 11:09:23;;;;;;;41.42;7.78;;;12.10;99.90;;;;;;5012067;28;20477;-78
2022/03/30 11:12:00;;;;;;;29.10;8.10;;;12.10;99.90;;;;;;5010284;28;20144;-78
2022/03/30 11:14:36;;;;;;;31.58;8.27;;;12.00;99.90;;;;;;5010631;28;20097;-78
2022/03/30 11:17:07;;;;;;;37.85;7.95;;;11.90;99.90;;;;;;5018039;28;20619;-78
2022/03/30 11:19:47;;;;;;;33.28;7.70;;;11.90;99.90;;;;;;5010123;28;20018;-78
2022/03/30 11:22:23;;;;;;;45.10;8.68;;;11.70;99.90;;;;;;5010205;28;20605;-78
2022/03/30 11:25:13;;;;;;;35.72;8.32;;;11.60;99.90;;;;;;5009620;28;20039;-78
2022/03/30 11:27:40;;;;;;;32.85;7.30;;;11.50;99.90;;;;;;5010076;28;20034;-78
2022/03/30 11:30:28;;;;;;;31.52;7.70;;;11.40;99.90;;;;;;5024861;28;20069;-78
2022/03/30 11:33:00;;;;;;;32.45;8.32;;;11.40;99.90;;;;;;5010117;28;20125;-78
2022/03/30 11:35:29;;;;;;;38.88;9.55;;;11.30;99.90;;;;;;5009962;28;20034;-79
2022/03/30 11:38:06;;;;;;;31.58;9.10;;;11.20;99.90;;;;;;5009948;28;20026;-79
2022/03/30 11:40:42;;;;;;;32.15;8.30;;;11.20;99.90;;;;;;5009606;28;20030;-79
2022/03/30 11:43:09;;;;;;;26.67;7.65;;;11.30;99.90;;;;;;5010241;28;20077;-79
2022/03/30 11:45:35;;;;;;;35.55;8.20;;;11.30;99.90;;;;;;5010326;28;20026;-80
2022/03/30 11:48:01;;;;;;;38.72;9.02;;;11.40;99.90;;;;;;5010566;28;20387;-80
2022/03/30 11:50:28;;;;;;;28.25;8.30;;;11.40;99.90;;;;;;5009387;28;20088;-79
2022/03/30 11:53:04;;;;;;;30.27;8.35;;;11.50;99.90;;;;;;5011172;28;20030;-78
2022/03/30 11:55:54;;;;;;;28.65;7.10;;;11.60;99.90;;;;;;5012689;28;20514;-77
2022/03/30 11:58:39;;;;;;;26.05;8.07;;;11.60;99.90;;;;;;5009825;28;20069;-78
2022/03/30 12:01:11;;;;;;;35.17;7.75;;;11.60;99.90;;;;;;5016592;28;20033;-77
2022/03/30 12:03:37;;;;;;;39.60;8.73;;;11.70;99.90;;;;;;5009159;28;20554;-77
2022/03/30 12:06:05;;;;;;;28.15;8.30;;;11.70;99.90;;;;;;5006146;28;20088;-77
2022/03/30 12:08:48;;;;;;;34.33;9.65;;;11.60;99.90;;;;;;5015499;28;20508;-78
2022/03/30 12:11:15;;;;;;;30.00;8.23;;;11.50;99.90;;;;;;5009705;28;20478;-67
2022/03/30 12:13:41;;;;;;;25.27;8.25;;;11.50;99.90;;;;;;5031001;28;20164;-67
2022/03/30 12:16:12;;;;;;;24.80;8.50;;;11.40;99.90;;;;;;5034665;28;20044;-67
2022/03/30 12:18:48;;;;;;;29.27;8.50;;;11.20;99.90;;;;;;5034862;28;20373;-73
2022/03/30 12:21:18;;;;;;;23.48;8.63;;;11.10;99.90;;;;;;5019678;28;20052;-73
2022/03/30 12:23:58;;;;;;;24.77;8.68;;;11.00;99.90;;;;;;5048055;28;20033;-69
2022/03/30 12:26:25;;;;;;;34.92;9.80;;;11.00;99.90;;;;;;5015392;28;20556;-74
2022/03/30 12:29:00;;;;;;;27.58;11.25;;;11.10;99.90;;;;;;5025273;28;20367;-78
2022/03/30 12:31:26;;;;;;;25.60;10.60;;;11.10;99.90;;;;;;5012622;28;20062;-78
2022/03/30 12:33:51;;;;;;;30.25;11.43;;;11.20;99.90;;;;;;5013981;28;20037;-78
2022/03/30 12:36:18;;;;;;;38.47;10.85;;;11.30;99.90;;;;;;5005070;28;20053;-78
2022/03/30 12:38:45;;;;;;;32.05;9.85;;;11.30;99.90;;;;;;5015332;28;20028;-80
2022/03/30 12:41:11;;;;;;;27.43;10.30;;;11.50;99.90;;;;;;5011698;28;20026;-81
2022/03/30 12:43:37;;;;;;;27.50;9.60;;;11.50;99.90;;;;;;5011666;28;20114;-78
2022/03/30 12:46:03;;;;;;;27.02;10.93;;;11.50;99.90;;;;;;5012234;28;20022;-80
2022/03/30 12:48:34;;;;;;;25.77;9.65;;;11.40;99.90;;;;;;5016160;28;20445;-80
2022/03/30 12:51:01;;;;;;;29.35;10.38;;;11.50;99.90;;;;;;5025782;28;20028;-79